createdAt,value
2022-08-26T00:02:49.921Z,12.70
2022-08-26T00:07:58.409Z,11.90
2022-08-26T00:13:07.443Z,12.00
2022-08-26T00:18:21.929Z,11.20
2022-08-26T00:23:30.351Z,12.40
2022-08-26T00:28:40.340Z,13.20
2022-08-26T00:33:48.243Z,12.70
2022-08-26T00:38:57.034Z,11.20
2022-08-26T00:44:06.183Z,11.80
2022-08-26T00:49:22.354Z,14.80
2022-08-26T00:54:36.357Z,13.00
2022-08-26T00:59:46.396Z,14.20
2022-08-26T01:04:56.549Z,12.70
2022-08-26T01:10:07.339Z,11.50
2022-08-26T01:15:21.827Z,12.70
2022-08-26T01:20:35.574Z,13.70
2022-08-26T01:25:46.671Z,13.00
2022-08-26T01:30:57.699Z,12.10
2022-08-26T01:36:05.939Z,12.00
2022-08-26T01:41:19.654Z,11.40
2022-08-26T01:46:30.522Z,11.70
2022-08-26T01:51:40.610Z,12.20
2022-08-26T01:56:49.233Z,12.60
2022-08-26T02:01:57.078Z,11.60
2022-08-26T02:07:06.453Z,11.80
2022-08-26T02:12:17.366Z,11.20
2022-08-26T02:17:31.277Z,11.90
2022-08-26T02:22:40.394Z,11.40
2022-08-26T02:27:50.915Z,11.70
2022-08-26T02:32:59.992Z,12.10
2022-08-26T02:38:11.191Z,13.00
2022-08-26T02:43:19.334Z,11.10
2022-08-26T02:48:41.731Z,11.70
2022-08-26T02:53:48.725Z,12.30
2022-08-26T02:58:57.364Z,12.20
2022-08-26T03:04:11.806Z,13.30
2022-08-26T03:09:20.227Z,13.70
2022-08-26T03:14:29.171Z,11.70
2022-08-26T03:19:37.208Z,12.30
2022-08-26T03:24:46.617Z,12.30
2022-08-26T03:30:12.058Z,12.80
2022-08-26T03:35:19.903Z,11.40
2022-08-26T03:40:30.030Z,11.00
2022-08-26T03:45:39.665Z,12.40
2022-08-26T03:50:49.027Z,12.00
2022-08-26T03:55:59.180Z,12.20
2022-08-26T04:01:07.685Z,12.00
2022-08-26T04:06:17.415Z,11.70
2022-08-26T04:11:34.206Z,11.30
2022-08-26T04:16:44.732Z,11.80
2022-08-26T04:21:54.285Z,12.10
2022-08-26T04:27:03.919Z,11.80
2022-08-26T04:32:12.536Z,12.10
2022-08-26T04:37:21.334Z,12.30
2022-08-26T04:42:32.286Z,12.20
2022-08-26T04:47:40.939Z,11.60
2022-08-26T04:52:48.272Z,13.00
2022-08-26T04:57:56.812Z,11.80
2022-08-26T05:03:06.905Z,13.70
2022-08-26T05:08:20.263Z,13.70
2022-08-26T05:13:29.076Z,10.20
2022-08-26T05:18:39.086Z,10.60
2022-08-26T05:23:46.977Z,10.60
2022-08-26T05:28:57.393Z,9.50
2022-08-26T05:34:09.185Z,9.40
2022-08-26T05:39:16.497Z,8.80
2022-08-26T05:44:25.121Z,10.30
2022-08-26T05:49:33.649Z,9.30
2022-08-26T05:54:43.265Z,8.70
2022-08-26T05:59:51.214Z,9.90
2022-08-26T06:04:58.831Z,7.60
2022-08-26T06:10:31.142Z,9.10
2022-08-26T06:15:34.559Z,9.60
2022-08-26T06:20:54.602Z,9.40
2022-08-26T06:26:06.211Z,8.70
2022-08-26T06:31:13.887Z,9.30
2022-08-26T06:36:24.205Z,10.50
2022-08-26T06:41:33.718Z,9.30
2022-08-26T06:46:43.116Z,10.20
2022-08-26T06:51:51.514Z,9.50
2022-08-26T06:57:01.746Z,9.30
2022-08-26T07:02:10.183Z,10.90
2022-08-26T07:07:22.160Z,9.70
2022-08-26T07:12:31.316Z,9.40
2022-08-26T07:17:38.830Z,10.60
2022-08-26T07:22:48.009Z,12.10
2022-08-26T07:27:56.921Z,12.20
2022-08-26T07:33:04.796Z,11.70
2022-08-26T07:38:12.765Z,8.00
2022-08-26T07:43:21.018Z,13.20
2022-08-26T07:48:32.333Z,12.20
2022-08-26T07:54:00.935Z,11.40
2022-08-26T07:59:13.962Z,12.20
2022-08-26T08:04:26.350Z,12.00
2022-08-26T08:09:34.411Z,12.30
2022-08-26T08:14:42.340Z,11.10
2022-08-26T08:19:51.037Z,11.80
2022-08-26T08:25:00.997Z,11.10
2022-08-26T08:30:22.889Z,10.90
2022-08-26T08:35:31.866Z,10.50
2022-08-26T08:40:42.615Z,10.80
2022-08-26T08:45:55.822Z,9.50
2022-08-26T08:51:17.453Z,9.00
2022-08-26T08:56:32.017Z,9.80
2022-08-26T09:01:55.169Z,8.90
2022-08-26T09:07:05.870Z,8.60
2022-08-26T09:12:20.587Z,8.50
2022-08-26T09:17:49.416Z,9.20
2022-08-26T09:22:57.964Z,9.10
2022-08-26T09:28:12.637Z,8.70
2022-08-26T09:33:28.182Z,9.00
2022-08-26T09:38:37.904Z,8.30
2022-08-26T09:43:56.682Z,8.50
2022-08-26T09:49:26.774Z,8.60
2022-08-26T09:54:34.096Z,9.70
2022-08-26T09:59:41.526Z,10.40
2022-08-26T10:04:56.765Z,13.00
2022-08-26T10:10:09.389Z,9.60
2022-08-26T10:15:19.806Z,8.80
2022-08-26T10:20:39.407Z,10.40
2022-08-26T10:25:53.982Z,9.00
2022-08-26T10:31:10.400Z,8.80
2022-08-26T10:36:47.215Z,7.80
2022-08-26T10:42:09.935Z,8.60
2022-08-26T10:47:22.820Z,7.50
2022-08-26T10:52:45.763Z,8.00
2022-08-26T10:57:59.244Z,8.50
2022-08-26T11:03:33.292Z,6.80
2022-08-26T11:08:51.175Z,7.00
2022-08-26T11:14:07.073Z,6.80
2022-08-26T11:19:59.689Z,5.70
2022-08-26T11:25:16.182Z,6.20
2022-08-26T11:30:44.234Z,4.90
2022-08-26T11:35:55.844Z,4.90
2022-08-26T11:41:18.540Z,4.00
2022-08-26T11:46:30.727Z,5.10
2022-08-26T11:51:40.839Z,4.50
2022-08-26T11:56:52.553Z,4.20
2022-08-26T12:02:01.333Z,5.20
2022-08-26T12:07:10.721Z,4.70
2022-08-26T12:12:23.161Z,4.70
2022-08-26T12:17:32.000Z,4.70
2022-08-26T12:22:48.243Z,4.70
2022-08-26T12:28:04.310Z,4.40
2022-08-26T12:33:22.168Z,4.80
2022-08-26T12:38:34.174Z,4.30
2022-08-26T12:43:44.652Z,4.60
2022-08-26T12:48:53.888Z,4.20
2022-08-26T12:54:03.059Z,3.50
2022-08-26T12:59:22.217Z,4.10
2022-08-26T13:04:42.553Z,3.80
2022-08-26T13:09:50.415Z,4.40
2022-08-26T13:15:01.275Z,4.50
2022-08-26T13:20:10.150Z,4.20
2022-08-26T13:25:19.653Z,4.40
2022-08-26T13:30:29.314Z,4.20
2022-08-26T13:35:37.543Z,4.10
2022-08-26T13:40:46.070Z,4.90
2022-08-26T13:45:52.987Z,3.90
2022-08-26T13:51:00.321Z,4.20
2022-08-26T13:56:11.118Z,3.80
2022-08-26T14:01:19.535Z,4.30
2022-08-26T14:06:27.025Z,4.00
2022-08-26T14:11:41.081Z,4.20
2022-08-26T14:17:01.117Z,3.80
2022-08-26T14:22:10.015Z,4.40
2022-08-26T14:27:17.288Z,3.90
2022-08-26T14:32:29.584Z,4.10
2022-08-26T14:37:40.207Z,4.10
2022-08-26T14:42:53.794Z,4.30
2022-08-26T14:48:03.114Z,4.30
2022-08-26T14:53:27.745Z,3.90
2022-08-26T14:58:35.074Z,4.30
2022-08-26T15:03:43.908Z,4.40
2022-08-26T15:08:51.256Z,4.80
2022-08-26T15:14:00.167Z,4.90
2022-08-26T15:19:07.920Z,4.70
2022-08-26T15:24:17.807Z,4.80
2022-08-26T15:29:25.873Z,4.40
2022-08-26T15:34:34.094Z,4.50
2022-08-26T15:39:41.252Z,4.90
2022-08-26T15:44:48.734Z,4.80
2022-08-26T15:49:56.583Z,4.90
2022-08-26T15:55:05.320Z,4.60
2022-08-26T16:00:16.665Z,4.90
2022-08-26T16:05:23.941Z,4.50
2022-08-26T16:10:33.113Z,4.80
2022-08-26T16:15:43.698Z,5.00
2022-08-26T16:21:08.779Z,4.70
2022-08-26T16:26:30.452Z,4.90
2022-08-26T16:31:39.057Z,4.70
2022-08-26T16:36:46.080Z,4.80
2022-08-26T16:41:54.054Z,4.90
2022-08-26T16:47:00.954Z,4.90
2022-08-26T16:52:08.036Z,5.50
2022-08-26T16:57:16.294Z,6.40
2022-08-26T17:02:24.706Z,6.60
2022-08-26T17:07:32.445Z,7.10
2022-08-26T17:12:41.300Z,6.60
2022-08-26T17:17:48.934Z,6.00
2022-08-26T17:22:57.348Z,7.00
2022-08-26T17:28:04.784Z,6.30
2022-08-26T17:33:22.130Z,7.30
2022-08-26T17:38:32.094Z,7.60
2022-08-26T17:43:41.265Z,7.70
2022-08-26T17:48:49.134Z,7.50
2022-08-26T17:53:57.709Z,6.80
2022-08-26T17:59:04.875Z,7.40
2022-08-26T18:04:12.236Z,7.70
2022-08-26T18:09:19.615Z,7.10
2022-08-26T18:14:26.686Z,6.50
2022-08-26T18:19:34.317Z,6.90
2022-08-26T18:24:43.179Z,6.90
2022-08-26T18:30:16.459Z,7.10
2022-08-26T18:35:28.715Z,7.40
2022-08-26T18:40:38.813Z,7.60
2022-08-26T18:45:45.948Z,8.20
2022-08-26T18:50:55.183Z,8.30
2022-08-26T18:56:04.264Z,7.30
2022-08-26T19:01:12.200Z,9.20
2022-08-26T19:06:21.901Z,8.70
2022-08-26T19:11:31.100Z,8.00
2022-08-26T19:16:41.236Z,9.10
2022-08-26T19:21:48.624Z,8.80
2022-08-26T19:26:58.401Z,8.50
2022-08-26T19:32:08.817Z,9.50
2022-08-26T19:37:16.740Z,8.80
2022-08-26T19:42:24.451Z,7.90
2022-08-26T19:47:31.658Z,8.20
2022-08-26T19:52:39.616Z,10.00
2022-08-26T19:57:46.913Z,8.80
2022-08-26T20:02:57.524Z,8.70
2022-08-26T20:08:05.489Z,8.60
2022-08-26T20:13:13.069Z,8.60
2022-08-26T20:18:38.712Z,10.00
2022-08-26T20:23:47.497Z,9.40
2022-08-26T20:28:54.971Z,10.80
2022-08-26T20:34:05.447Z,9.20
2022-08-26T20:39:15.990Z,9.20
2022-08-26T20:44:24.213Z,10.00
2022-08-26T20:49:32.199Z,9.40
2022-08-26T20:54:41.527Z,9.30
2022-08-26T20:59:51.143Z,9.90
2022-08-26T21:04:59.417Z,8.70
2022-08-26T21:10:06.775Z,8.90
2022-08-26T21:15:14.576Z,8.90
2022-08-26T21:25:28.694Z,8.60
2022-08-26T21:30:43.311Z,7.20
2022-08-26T21:35:55.300Z,8.20
2022-08-26T21:41:04.885Z,8.60
2022-08-26T21:46:15.275Z,8.40
2022-08-26T21:51:24.744Z,9.30
2022-08-26T21:56:34.537Z,9.20
2022-08-26T22:01:41.479Z,9.10
2022-08-26T22:06:52.426Z,8.30
2022-08-26T22:12:01.477Z,9.00
2022-08-26T22:17:09.497Z,9.30
2022-08-26T22:22:16.993Z,9.70
2022-08-26T22:27:24.471Z,10.40
2022-08-26T22:32:31.409Z,9.00
2022-08-26T22:37:38.529Z,8.90
2022-08-26T22:42:55.682Z,8.90
2022-08-26T22:48:08.485Z,8.40
2022-08-26T22:53:17.765Z,8.50
2022-08-26T22:58:30.589Z,9.70
2022-08-26T23:03:38.489Z,9.50
2022-08-26T23:08:47.441Z,9.40
2022-08-26T23:13:56.272Z,9.10
2022-08-26T23:19:04.425Z,8.50
2022-08-26T23:24:13.257Z,8.80
2022-08-26T23:29:20.102Z,10.00
2022-08-26T23:34:45.815Z,9.30
2022-08-26T23:39:57.021Z,9.60
2022-08-26T23:45:06.300Z,10.40
2022-08-26T23:50:14.897Z,10.70
2022-08-26T23:55:24.352Z,10.00
